AMV49S LZKZ-ESSV
Flight info
| Callsign | AMV49S |
|---|---|
| Flight time | N/A |
| Altitude | 36000 |
| Route | RAZEC DCT NEGUV N133 PENOR DCT OLANU DCT KINTI |
| Aircraft | A320/M-SDE3FGHIRWY/LB1 |
Departure
| Time | 2026-04-21 13:07 |
|---|---|
| Airport | Košice International Airport (LZKZ) |
Arrival
| Time | N/A |
|---|---|
| Airport | Visby Airport (ESSV) |
| Time | Latitude | Longitude | Altitude | Speed | Heading |
|---|---|---|---|---|---|
| 2026-04-21 12:27 | 48.67330 | 21.23845 | 753 ft | 0 kts | 233° |
| 2026-04-21 12:59 | 48.67328 | 21.23842 | 757 ft | 2 kts | 229° |
| 2026-04-21 12:59 | 48.67298 | 21.23857 | 755 ft | 5 kts | 111° |
| 2026-04-21 13:00 | 48.67301 | 21.23937 | 755 ft | 12 kts | 96° |
| 2026-04-21 13:00 | 48.67281 | 21.24075 | 757 ft | 13 kts | 102° |
| 2026-04-21 13:00 | 48.67263 | 21.24199 | 755 ft | 11 kts | 104° |
| 2026-04-21 13:00 | 48.67246 | 21.24303 | 755 ft | 9 kts | 104° |
| 2026-04-21 13:01 | 48.67227 | 21.24386 | 754 ft | 7 kts | 121° |
| 2026-04-21 13:01 | 48.67196 | 21.24419 | 756 ft | 5 kts | 167° |
| 2026-04-21 13:01 | 48.67133 | 21.24407 | 759 ft | 13 kts | 193° |
| 2026-04-21 13:01 | 48.67014 | 21.24365 | 760 ft | 22 kts | 193° |
| 2026-04-21 13:02 | 48.66853 | 21.24309 | 759 ft | 23 kts | 193° |
| 2026-04-21 13:02 | 48.66699 | 21.24256 | 759 ft | 22 kts | 193° |
| 2026-04-21 13:02 | 48.66393 | 21.24149 | 754 ft | 23 kts | 193° |
| 2026-04-21 13:03 | 48.66232 | 21.24093 | 756 ft | 24 kts | 192° |
| 2026-04-21 13:03 | 48.66067 | 21.24036 | 754 ft | 25 kts | 193° |
| 2026-04-21 13:03 | 48.65899 | 21.23978 | 757 ft | 25 kts | 194° |
| 2026-04-21 13:03 | 48.65740 | 21.23921 | 754 ft | 23 kts | 193° |
| 2026-04-21 13:04 | 48.65586 | 21.23867 | 756 ft | 22 kts | 192° |
| 2026-04-21 13:04 | 48.65445 | 21.23819 | 752 ft | 20 kts | 193° |
| 2026-04-21 13:04 | 48.65319 | 21.23775 | 757 ft | 17 kts | 193° |
| 2026-04-21 13:04 | 48.65206 | 21.23736 | 757 ft | 16 kts | 193° |
| 2026-04-21 13:05 | 48.65107 | 21.23701 | 756 ft | 13 kts | 193° |
| 2026-04-21 13:05 | 48.65029 | 21.23660 | 755 ft | 11 kts | 210° |
| 2026-04-21 13:05 | 48.64969 | 21.23638 | 753 ft | 6 kts | 169° |
| 2026-04-21 13:05 | 48.64967 | 21.23671 | 757 ft | 2 kts | 39° |
| 2026-04-21 13:06 | 48.64996 | 21.23665 | 753 ft | 5 kts | 353° |
| 2026-04-21 13:06 | 48.65037 | 21.23676 | 757 ft | 9 kts | 13° |
| 2026-04-21 13:06 | 48.65295 | 21.23767 | 757 ft | 72 kts | 13° |
| 2026-04-21 13:06 | 48.65978 | 21.24004 | 755 ft | 127 kts | 13° |
| 2026-04-21 13:07 | 48.66945 | 21.24347 | 1026 ft | 148 kts | 14° |
| 2026-04-21 13:07 | 48.67945 | 21.24711 | 1762 ft | 148 kts | 15° |
| 2026-04-21 13:07 | 48.68953 | 21.25063 | 2447 ft | 149 kts | 15° |
| 2026-04-21 13:07 | 48.69999 | 21.25421 | 2857 ft | 163 kts | 16° |
| 2026-04-21 13:08 | 48.71159 | 21.25852 | 3193 ft | 180 kts | 16° |
| 2026-04-21 13:08 | 48.72423 | 21.26316 | 3597 ft | 193 kts | 14° |
| 2026-04-21 13:08 | 48.73782 | 21.26414 | 4286 ft | 201 kts | 350° |
| 2026-04-21 13:08 | 48.75141 | 21.25803 | 5071 ft | 205 kts | 346° |
| 2026-04-21 13:09 | 48.76512 | 21.25171 | 5842 ft | 207 kts | 346° |
| 2026-04-21 13:09 | 48.77892 | 21.24539 | 6634 ft | 208 kts | 347° |
| 2026-04-21 13:09 | 48.79283 | 21.23903 | 7344 ft | 210 kts | 347° |
| 2026-04-21 13:09 | 48.80686 | 21.23261 | 8132 ft | 211 kts | 347° |
| 2026-04-21 13:10 | 48.82100 | 21.22615 | 8855 ft | 214 kts | 346° |
| 2026-04-21 13:10 | 48.83539 | 21.21961 | 9592 ft | 217 kts | 346° |
| 2026-04-21 13:10 | 48.85001 | 21.21298 | 10259 ft | 222 kts | 345° |
| 2026-04-21 13:10 | 48.86485 | 21.20620 | 10935 ft | 226 kts | 344° |
| 2026-04-21 13:11 | 48.88058 | 21.19858 | 11229 ft | 249 kts | 342° |
| 2026-04-21 13:11 | 48.89750 | 21.19003 | 11478 ft | 272 kts | 342° |
| 2026-04-21 13:11 | 48.91617 | 21.18046 | 11703 ft | 295 kts | 342° |
| 2026-04-21 13:11 | 48.93636 | 21.17008 | 11925 ft | 316 kts | 342° |
| 2026-04-21 13:12 | 48.95747 | 21.15921 | 12534 ft | 323 kts | 341° |
| 2026-04-21 13:12 | 48.97899 | 21.14813 | 13162 ft | 330 kts | 341° |
| 2026-04-21 13:12 | 49.00078 | 21.13692 | 13918 ft | 331 kts | 341° |
| 2026-04-21 13:12 | 49.02275 | 21.12567 | 14547 ft | 334 kts | 341° |
| 2026-04-21 13:13 | 49.04482 | 21.11440 | 15246 ft | 336 kts | 341° |
| 2026-04-21 13:13 | 49.06709 | 21.10301 | 15830 ft | 340 kts | 341° |
| 2026-04-21 13:13 | 49.08963 | 21.09145 | 16435 ft | 344 kts | 341° |
| 2026-04-21 13:13 | 49.11246 | 21.07969 | 16993 ft | 349 kts | 341° |
| 2026-04-21 13:14 | 49.13559 | 21.06779 | 17633 ft | 351 kts | 341° |
| 2026-04-21 13:14 | 49.15885 | 21.05579 | 18226 ft | 355 kts | 342° |
| 2026-04-21 13:14 | 49.18223 | 21.04372 | 18827 ft | 356 kts | 342° |
| 2026-04-21 13:14 | 49.20588 | 21.03153 | 19269 ft | 361 kts | 342° |
| 2026-04-21 13:15 | 49.22973 | 21.01921 | 19771 ft | 364 kts | 341° |
| 2026-04-21 13:15 | 49.25354 | 21.00689 | 20255 ft | 368 kts | 341° |
| 2026-04-21 13:15 | 49.27816 | 20.99413 | 20790 ft | 370 kts | 341° |
| 2026-04-21 13:15 | 49.30228 | 20.98165 | 21294 ft | 372 kts | 341° |
| 2026-04-21 13:16 | 49.32682 | 20.96894 | 21838 ft | 374 kts | 341° |
| 2026-04-21 13:16 | 49.35159 | 20.95607 | 22277 ft | 377 kts | 341° |
| 2026-04-21 13:16 | 49.37662 | 20.94306 | 22691 ft | 382 kts | 341° |
| 2026-04-21 13:16 | 49.40190 | 20.92993 | 23160 ft | 384 kts | 341° |
| 2026-04-21 13:17 | 49.42727 | 20.91675 | 23634 ft | 387 kts | 342° |